Time;durP1;ratioP1;P1;durP2;ratioP2;P2;SDS_P1;SDS_P2;PMS_P1;PMS_P2;Temp;Humidity;BMP_temperature;BMP_pressure;BME280_temperature;BME280_humidity;BME280_pressure;Samples;Min_cycle;Max_cycle;Signal;HPM_P1;HPM_P2
2022/11/06 00:00:30;;;;;;;7.23;6.00;;;9.60;99.90;;;;;;5015081;28;20236;-58
2022/11/06 00:02:59;;;;;;;9.07;6.07;;;9.60;99.90;;;;;;5012967;28;20636;-59
2022/11/06 00:08:14;;;;;;;7.03;5.40;;;9.60;99.90;;;;;;5013343;28;20252;-59
2022/11/06 00:10:42;;;;;;;7.23;5.53;;;9.60;99.90;;;;;;5012913;28;20291;-58
2022/11/06 00:13:10;;;;;;;7.93;5.50;;;9.50;99.90;;;;;;5013229;28;20581;-59
2022/11/06 00:15:40;;;;;;;8.60;6.00;;;9.50;99.90;;;;;;5004097;28;20236;-59
2022/11/06 00:18:08;;;;;;;8.93;6.00;;;9.50;99.90;;;;;;5009538;28;20617;-59
2022/11/06 00:20:37;;;;;;;6.33;5.47;;;9.50;99.90;;;;;;5008767;28;20225;-58
2022/11/06 00:23:05;;;;;;;7.83;5.90;;;9.50;99.90;;;;;;5013498;28;20627;-59
2022/11/06 00:25:33;;;;;;;7.23;5.43;;;9.40;99.90;;;;;;5015312;28;20283;-59
2022/11/06 00:28:01;;;;;;;9.33;5.57;;;9.50;99.90;;;;;;5016780;28;20587;-59
2022/11/06 00:30:29;;;;;;;8.43;6.30;;;9.40;99.90;;;;;;5016316;28;20232;-59
2022/11/06 00:32:59;;;;;;;7.70;5.90;;;9.40;99.90;;;;;;5016578;28;20221;-59
2022/11/06 00:35:27;;;;;;;10.83;5.73;;;9.40;99.90;;;;;;5016061;28;20563;-59
2022/11/06 00:37:56;;;;;;;7.97;5.53;;;9.30;99.90;;;;;;5016298;28;20244;-59
2022/11/06 00:40:24;;;;;;;7.60;5.10;;;9.30;99.90;;;;;;5016665;28;20638;-59
2022/11/06 00:42:56;;;;;;;8.13;5.97;;;9.40;99.90;;;;;;5016458;28;20267;-59
2022/11/06 00:45:25;;;;;;;5.93;4.97;;;9.30;99.90;;;;;;5008017;28;20245;-57
2022/11/06 00:47:53;;;;;;;7.47;5.43;;;9.30;99.90;;;;;;5007055;28;20230;-58
2022/11/06 00:50:25;;;;;;;9.33;5.57;;;9.40;99.90;;;;;;5009652;28;20229;-59
2022/11/06 00:52:54;;;;;;;6.63;4.97;;;9.40;99.90;;;;;;5016281;28;20331;-59
2022/11/06 00:55:22;;;;;;;7.90;5.27;;;9.30;99.90;;;;;;5016465;28;20584;-59
2022/11/06 00:57:51;;;;;;;9.23;5.40;;;9.30;99.90;;;;;;5016318;28;20244;-59
2022/11/06 01:00:19;;;;;;;6.87;4.93;;;9.30;99.90;;;;;;5015733;28;20233;-59
2022/11/06 01:02:47;;;;;;;7.57;5.20;;;9.40;99.90;;;;;;5015836;28;20236;-59
2022/11/06 01:05:16;;;;;;;6.63;4.60;;;9.30;99.90;;;;;;5015794;28;20233;-59
2022/11/06 01:07:46;;;;;;;6.53;5.00;;;9.40;99.90;;;;;;5015573;28;20229;-59
2022/11/06 01:10:14;;;;;;;8.40;5.43;;;9.40;99.90;;;;;;5016215;28;20230;-59
2022/11/06 01:12:42;;;;;;;8.63;5.17;;;9.40;99.90;;;;;;5015721;28;20237;-59
2022/11/06 01:15:10;;;;;;;9.97;4.80;;;9.40;99.90;;;;;;5012182;28;20233;-59
2022/11/06 01:17:38;;;;;;;8.40;5.40;;;9.40;99.90;;;;;;5006809;28;20280;-59
2022/11/06 01:20:07;;;;;;;6.87;5.03;;;9.40;99.90;;;;;;5007313;28;20229;-59
2022/11/06 01:22:35;;;;;;;8.33;5.43;;;9.40;99.90;;;;;;5015806;28;20229;-59
2022/11/06 01:25:06;;;;;;;6.27;4.77;;;9.40;99.90;;;;;;5013738;28;20240;-59
2022/11/06 01:27:34;;;;;;;6.87;5.00;;;9.40;99.90;;;;;;5015599;28;20225;-59
2022/11/06 01:30:02;;;;;;;8.00;5.37;;;9.40;99.90;;;;;;5015513;28;20237;-59
2022/11/06 01:32:30;;;;;;;6.20;4.90;;;9.40;99.90;;;;;;5014895;28;20252;-59
2022/11/06 01:34:58;;;;;;;6.77;5.00;;;9.40;99.90;;;;;;5015626;28;20241;-59
2022/11/06 01:37:27;;;;;;;7.03;4.90;;;9.40;99.90;;;;;;5014186;28;20265;-59
2022/11/06 01:39:54;;;;;;;7.27;4.77;;;9.40;99.90;;;;;;5015480;28;20233;-59
2022/11/06 01:42:24;;;;;;;8.90;5.43;;;9.50;99.90;;;;;;5015161;28;20615;-59
2022/11/06 01:45:35;;;;;;;7.60;5.00;;;9.40;99.90;;;;;;5006849;28;20325;-59
2022/11/06 01:48:04;;;;;;;9.77;5.57;;;9.50;99.90;;;;;;5012710;28;20232;-59
2022/11/06 01:50:32;;;;;;;9.37;5.53;;;9.50;99.90;;;;;;5000506;28;20226;-59
2022/11/06 01:53:01;;;;;;;6.90;4.40;;;9.50;99.90;;;;;;4995790;28;20277;-59
2022/11/06 01:55:32;;;;;;;8.33;5.47;;;9.50;99.90;;;;;;4995604;28;20296;-59
2022/11/06 01:58:04;;;;;;;8.03;5.13;;;9.50;99.90;;;;;;4995371;28;20238;-59
2022/11/06 02:00:32;;;;;;;7.43;5.03;;;9.50;99.90;;;;;;5001846;28;20229;-58
2022/11/06 02:03:01;;;;;;;9.77;5.67;;;9.50;99.90;;;;;;5014740;28;20218;-59
2022/11/06 02:05:30;;;;;;;7.97;5.37;;;9.50;99.90;;;;;;5014822;28;20289;-59
2022/11/06 02:08:00;;;;;;;7.63;5.40;;;9.50;99.90;;;;;;5014983;28;20221;-58
2022/11/06 02:10:30;;;;;;;9.83;5.30;;;9.50;99.90;;;;;;5014732;28;20681;-59
2022/11/06 02:13:10;;;;;;;8.57;5.83;;;9.50;99.90;;;;;;5014263;28;20221;-59
2022/11/06 02:15:47;;;;;;;5.70;5.10;;;9.50;99.90;;;;;;5006635;28;20233;-59
2022/11/06 02:18:36;;;;;;;8.27;5.30;;;9.50;99.90;;;;;;4994826;28;20234;-59
2022/11/06 02:21:38;;;;;;;9.93;5.93;;;9.50;99.90;;;;;;5013889;28;20233;-59
2022/11/06 02:24:46;;;;;;;7.03;5.27;;;9.50;99.90;;;;;;4963718;28;20286;-59
2022/11/06 02:27:17;;;;;;;6.40;5.30;;;9.50;99.90;;;;;;5014564;28;20226;-59
2022/11/06 02:29:49;;;;;;;6.83;5.63;;;9.50;99.90;;;;;;5014766;28;20244;-59
2022/11/06 02:32:22;;;;;;;11.63;5.80;;;9.50;99.90;;;;;;5014274;28;20583;-59
2022/11/06 02:34:52;;;;;;;8.20;5.67;;;9.50;99.90;;;;;;5014583;28;20352;-59
2022/11/06 02:37:27;;;;;;;7.90;5.13;;;9.60;99.90;;;;;;5014612;28;20232;-59
2022/11/06 02:39:59;;;;;;;7.83;5.30;;;9.60;99.90;;;;;;5014207;28;20263;-59
2022/11/06 02:42:30;;;;;;;6.57;5.20;;;9.50;99.90;;;;;;5014103;28;20221;-58
2022/11/06 02:45:00;;;;;;;9.07;6.07;;;9.60;99.90;;;;;;5005825;28;20721;-59
2022/11/06 02:47:31;;;;;;;9.53;5.50;;;9.60;99.90;;;;;;5007855;28;20226;-58
2022/11/06 02:50:04;;;;;;;6.63;5.70;;;9.60;99.90;;;;;;5004952;28;20233;-59
2022/11/06 02:52:36;;;;;;;6.97;5.33;;;9.60;99.90;;;;;;5014106;28;20233;-59
2022/11/06 02:55:11;;;;;;;8.30;5.27;;;9.60;99.90;;;;;;5014447;28;20236;-59
2022/11/06 02:57:46;;;;;;;7.83;5.27;;;9.60;99.90;;;;;;5013677;28;20240;-59
2022/11/06 03:00:16;;;;;;;8.50;5.73;;;9.60;99.90;;;;;;5013559;28;20220;-59
2022/11/06 03:02:48;;;;;;;7.03;5.70;;;9.60;99.90;;;;;;5013217;28;20253;-58
2022/11/06 03:05:23;;;;;;;9.53;5.97;;;9.60;99.90;;;;;;4994518;28;20231;-59
2022/11/06 03:07:57;;;;;;;7.00;5.73;;;9.60;99.90;;;;;;4994136;28;20229;-59
2022/11/06 03:10:30;;;;;;;9.13;5.23;;;9.70;99.90;;;;;;4994088;28;20234;-58
2022/11/06 03:13:06;;;;;;;6.80;5.40;;;9.70;99.90;;;;;;5000553;28;20243;-59
2022/11/06 03:15:39;;;;;;;9.07;5.47;;;9.70;99.90;;;;;;5005495;28;20233;-59
2022/11/06 03:18:12;;;;;;;7.93;5.10;;;9.80;99.90;;;;;;5002357;28;20234;-59
2022/11/06 03:20:49;;;;;;;6.97;5.07;;;9.70;99.90;;;;;;5010409;28;20229;-59
2022/11/06 03:23:24;;;;;;;5.77;5.00;;;9.70;99.90;;;;;;5032925;28;20232;-59
2022/11/06 03:25:56;;;;;;;10.43;6.27;;;9.80;99.90;;;;;;5033665;28;20228;-59
2022/11/06 03:28:31;;;;;;;7.47;5.63;;;9.80;99.90;;;;;;5010629;28;20270;-59
2022/11/06 03:31:02;;;;;;;5.93;5.20;;;9.80;99.90;;;;;;5002926;28;20570;-59
2022/11/06 03:33:34;;;;;;;9.80;6.23;;;9.80;99.90;;;;;;5013576;28;20233;-59
2022/11/06 03:36:05;;;;;;;10.60;5.83;;;9.80;99.90;;;;;;5013319;28;20578;-59
2022/11/06 03:38:36;;;;;;;9.03;6.00;;;9.80;99.90;;;;;;5013125;28;20292;-59
2022/11/06 03:41:13;;;;;;;8.43;5.70;;;9.70;99.90;;;;;;5013074;28;20308;-59
2022/11/06 03:43:47;;;;;;;10.20;5.60;;;9.70;99.90;;;;;;5012892;28;20241;-59
2022/11/06 03:46:19;;;;;;;7.20;5.10;;;9.60;99.90;;;;;;5006080;28;20227;-59
2022/11/06 03:48:52;;;;;;;8.37;5.80;;;9.60;99.90;;;;;;4996895;28;20640;-58
2022/11/06 03:51:24;;;;;;;8.87;5.67;;;9.60;99.90;;;;;;5013105;28;20227;-59
2022/11/06 03:53:56;;;;;;;10.80;5.40;;;9.60;99.90;;;;;;5013336;28;20213;-59
2022/11/06 03:56:30;;;;;;;8.00;5.37;;;9.60;99.90;;;;;;5013581;28;20237;-57
2022/11/06 03:59:02;;;;;;;8.43;5.70;;;9.60;99.90;;;;;;5013913;28;20718;-59
2022/11/06 04:01:35;;;;;;;8.07;5.67;;;9.60;99.90;;;;;;5019082;28;20240;-59
2022/11/06 04:04:11;;;;;;;6.27;5.03;;;9.60;99.90;;;;;;5020035;28;20249;-59
2022/11/06 04:06:43;;;;;;;9.60;5.07;;;9.60;99.90;;;;;;5019419;28;20225;-59
2022/11/06 04:14:53;;;;;;;7.60;4.83;;;9.70;99.90;;;;;;5010925;28;20236;-59
2022/11/06 04:17:23;;;;;;;9.13;5.17;;;9.70;99.90;;;;;;5010838;28;20227;-59
2022/11/06 04:19:55;;;;;;;7.07;4.87;;;9.60;99.90;;;;;;5009199;28;20228;-59
2022/11/06 04:22:38;;;;;;;9.50;5.20;;;9.60;99.90;;;;;;5019386;28;20233;-59
2022/11/06 04:28:29;;;;;;;8.63;5.33;;;9.70;99.90;;;;;;5019631;28;20249;-58
2022/11/06 04:31:06;;;;;;;7.83;4.77;;;9.70;99.90;;;;;;5018618;28;20237;-59
2022/11/06 04:33:40;;;;;;;7.93;4.70;;;9.70;99.90;;;;;;5019541;28;20707;-58
2022/11/06 04:36:17;;;;;;;6.33;5.07;;;9.70;99.90;;;;;;5019534;28;20274;-59
2022/11/06 04:38:53;;;;;;;7.67;5.07;;;9.70;99.90;;;;;;5019287;28;20740;-59
2022/11/06 04:41:33;;;;;;;7.63;4.73;;;9.70;99.90;;;;;;5019299;28;20276;-59
2022/11/06 04:44:07;;;;;;;8.80;4.80;;;9.70;99.90;;;;;;5016784;28;20668;-58
2022/11/06 04:46:41;;;;;;;6.50;4.20;;;9.80;99.90;;;;;;5006602;28;20231;-59
2022/11/06 04:49:12;;;;;;;8.07;5.10;;;9.80;99.90;;;;;;5012660;28;20264;-59
2022/11/06 04:51:44;;;;;;;6.87;5.10;;;9.80;99.90;;;;;;5019462;28;20584;-59
2022/11/06 04:54:13;;;;;;;7.00;4.33;;;9.80;99.90;;;;;;5019239;28;20232;-59
2022/11/06 04:56:42;;;;;;;8.93;5.27;;;9.80;99.90;;;;;;5019225;28;20620;-59
2022/11/06 04:59:16;;;;;;;6.43;4.40;;;9.80;99.90;;;;;;5019136;28;20229;-59
2022/11/06 05:01:46;;;;;;;8.73;4.80;;;9.80;99.90;;;;;;4999298;28;20305;-59
2022/11/06 05:04:15;;;;;;;7.00;4.80;;;9.80;99.90;;;;;;4999686;28;20324;-59
2022/11/06 05:06:43;;;;;;;6.77;4.80;;;9.90;99.90;;;;;;4999416;28;20232;-59
2022/11/06 05:09:11;;;;;;;6.63;4.13;;;9.90;99.90;;;;;;5000177;28;20230;-59
2022/11/06 05:11:39;;;;;;;7.43;4.63;;;9.80;99.90;;;;;;5015773;28;20287;-59
2022/11/06 05:14:07;;;;;;;8.37;4.67;;;9.80;99.90;;;;;;5012952;28;20237;-59
2022/11/06 05:16:35;;;;;;;14.53;4.90;;;9.80;99.90;;;;;;5011168;28;20226;-59
2022/11/06 05:19:05;;;;;;;8.07;4.90;;;9.70;99.90;;;;;;4999310;28;20221;-59
2022/11/06 05:24:18;;;;;;;8.37;4.77;;;9.70;99.90;;;;;;5016287;28;20236;-59
2022/11/06 05:26:46;;;;;;;5.97;4.23;;;9.70;99.90;;;;;;5031144;28;20235;-60
2022/11/06 05:29:14;;;;;;;6.67;4.50;;;9.70;99.90;;;;;;5034622;28;20235;-59
2022/11/06 05:31:42;;;;;;;6.53;4.70;;;9.60;99.90;;;;;;4998390;28;20242;-59
2022/11/06 05:34:12;;;;;;;7.97;5.10;;;9.60;99.90;;;;;;4996028;28;20226;-58
2022/11/06 05:36:40;;;;;;;6.80;4.70;;;9.60;99.90;;;;;;4995603;28;20226;-59
2022/11/06 05:39:08;;;;;;;7.97;4.60;;;9.60;99.90;;;;;;4995996;28;20732;-59
2022/11/06 05:41:36;;;;;;;7.33;5.07;;;9.60;99.90;;;;;;5014410;28;20279;-60
2022/11/06 05:44:05;;;;;;;5.40;4.50;;;9.60;99.90;;;;;;5014988;28;20237;-60
2022/11/06 05:46:33;;;;;;;6.50;4.47;;;9.50;99.90;;;;;;5010428;28;20225;-59
2022/11/06 05:49:19;;;;;;;9.70;5.20;;;9.50;99.90;;;;;;5007000;28;20221;-59
2022/11/06 05:51:47;;;;;;;5.10;4.37;;;9.60;99.90;;;;;;4995672;28;20229;-59
2022/11/06 05:54:15;;;;;;;10.50;4.47;;;9.50;99.90;;;;;;4995615;28;20771;-58
2022/11/06 05:56:43;;;;;;;6.17;4.83;;;9.60;99.90;;;;;;4995417;28;20809;-59
2022/11/06 05:59:12;;;;;;;7.27;4.80;;;9.50;99.90;;;;;;4995513;28;20281;-60
2022/11/06 06:01:40;;;;;;;8.40;4.87;;;9.50;99.90;;;;;;5013331;28;20240;-59
2022/11/06 06:04:08;;;;;;;10.57;5.10;;;9.50;99.90;;;;;;5014851;28;20272;-60
2022/11/06 06:06:38;;;;;;;7.67;4.73;;;9.50;99.90;;;;;;5015302;28;20237;-59
2022/11/06 06:09:06;;;;;;;8.17;5.03;;;9.50;99.90;;;;;;5015285;28;20236;-60
2022/11/06 06:11:34;;;;;;;6.03;4.50;;;9.50;99.90;;;;;;5014314;28;20252;-59
2022/11/06 06:14:02;;;;;;;7.97;4.67;;;9.50;99.90;;;;;;5012420;28;20627;-60
2022/11/06 06:16:30;;;;;;;7.97;4.87;;;9.50;99.90;;;;;;5009092;28;20223;-59
2022/11/06 06:18:58;;;;;;;9.70;5.17;;;9.40;99.90;;;;;;4998448;28;20226;-59
2022/11/06 06:21:26;;;;;;;6.80;4.40;;;9.50;99.90;;;;;;5013789;28;20241;-59
2022/11/06 06:23:56;;;;;;;6.17;4.73;;;9.40;99.90;;;;;;5014410;28;20281;-60
2022/11/06 06:26:24;;;;;;;7.40;4.20;;;9.50;99.90;;;;;;5014192;28;20237;-59
2022/11/06 06:28:52;;;;;;;9.40;5.63;;;9.50;99.90;;;;;;5014640;28;20230;-59
2022/11/06 06:31:20;;;;;;;8.67;4.83;;;9.50;99.90;;;;;;5013919;28;20697;-59
2022/11/06 06:33:48;;;;;;;7.87;5.33;;;9.50;99.90;;;;;;5014410;28;20241;-59
2022/11/06 06:36:16;;;;;;;8.33;5.20;;;9.40;99.90;;;;;;5014012;28;20685;-59
2022/11/06 06:38:44;;;;;;;7.03;5.20;;;9.40;99.90;;;;;;5014431;28;20284;-59
2022/11/06 06:41:14;;;;;;;8.40;4.50;;;9.40;99.90;;;;;;5014563;28;20237;-59
2022/11/06 06:43:42;;;;;;;7.90;4.77;;;9.30;99.90;;;;;;5013992;28;20251;-60
2022/11/06 06:46:10;;;;;;;8.13;5.27;;;9.40;99.90;;;;;;5006365;28;20235;-60
2022/11/06 06:48:38;;;;;;;7.77;5.17;;;9.40;99.90;;;;;;4999052;28;20229;-60
2022/11/06 06:51:07;;;;;;;9.17;4.90;;;9.40;99.90;;;;;;5014112;28;20265;-60
2022/11/06 06:53:36;;;;;;;7.73;5.00;;;9.40;99.90;;;;;;5014452;28;20651;-58
2022/11/06 06:56:04;;;;;;;6.83;4.40;;;9.40;99.90;;;;;;5013711;28;20229;-59
2022/11/06 06:58:34;;;;;;;9.13;5.20;;;9.30;99.90;;;;;;5005954;28;20234;-59
2022/11/06 07:01:04;;;;;;;10.43;5.30;;;9.40;99.90;;;;;;5003202;28;20228;-59
2022/11/06 07:03:32;;;;;;;6.60;5.03;;;9.40;99.90;;;;;;4997003;28;20298;-59
2022/11/06 07:06:00;;;;;;;7.47;4.43;;;9.40;99.90;;;;;;4999799;28;20261;-59
2022/11/06 07:08:29;;;;;;;7.30;4.97;;;9.40;99.90;;;;;;4993874;28;20258;-59
2022/11/06 07:11:00;;;;;;;5.80;4.50;;;9.40;99.90;;;;;;4994563;28;20741;-59
2022/11/06 07:13:29;;;;;;;6.07;4.53;;;9.40;99.90;;;;;;5004921;28;20579;-59
2022/11/06 07:16:04;;;;;;;8.30;4.70;;;9.40;99.90;;;;;;5006915;28;20230;-60
2022/11/06 07:18:33;;;;;;;7.13;5.20;;;9.40;99.90;;;;;;5004157;28;20230;-59
2022/11/06 07:21:01;;;;;;;6.63;4.73;;;9.40;99.90;;;;;;5004900;28;20325;-59
2022/11/06 07:23:29;;;;;;;6.03;4.37;;;9.40;99.90;;;;;;5005008;28;20226;-59
2022/11/06 07:25:57;;;;;;;9.53;4.83;;;9.40;99.90;;;;;;5001673;28;20233;-59
2022/11/06 07:28:25;;;;;;;8.07;4.80;;;9.40;99.90;;;;;;5001621;28;20230;-58
2022/11/06 07:30:57;;;;;;;7.93;4.47;;;9.40;99.90;;;;;;4993854;28;20746;-59
2022/11/06 07:33:27;;;;;;;7.57;4.43;;;9.40;99.90;;;;;;5006464;28;20276;-59
2022/11/06 07:35:55;;;;;;;9.03;4.53;;;9.40;99.90;;;;;;4998374;28;20225;-59
2022/11/06 07:38:23;;;;;;;4.90;4.00;;;9.40;99.90;;;;;;5008171;28;20285;-59
2022/11/06 07:40:52;;;;;;;9.80;5.00;;;9.40;99.90;;;;;;4996011;28;20226;-59
2022/11/06 07:43:20;;;;;;;7.60;4.80;;;9.40;99.90;;;;;;5002149;28;20251;-59
2022/11/06 07:45:48;;;;;;;8.47;4.43;;;9.40;99.90;;;;;;5004749;28;20238;-59
2022/11/06 07:48:16;;;;;;;6.70;4.70;;;9.50;99.90;;;;;;5001891;28;20242;-59
2022/11/06 07:50:46;;;;;;;6.67;4.13;;;9.40;99.90;;;;;;5010060;28;20330;-59
2022/11/06 07:53:14;;;;;;;8.37;4.30;;;9.40;99.90;;;;;;5012967;28;20292;-59
2022/11/06 07:55:48;;;;;;;10.13;4.90;;;9.40;99.90;;;;;;5012991;28;20305;-59
2022/11/06 07:58:17;;;;;;;5.83;4.30;;;9.40;99.90;;;;;;5013430;28;20233;-59
2022/11/06 08:00:47;;;;;;;7.20;4.20;;;9.40;99.90;;;;;;5012555;28;20293;-59
2022/11/06 08:03:16;;;;;;;6.97;3.97;;;9.40;99.90;;;;;;5012975;28;20230;-59
2022/11/06 08:05:46;;;;;;;6.53;4.10;;;9.50;99.90;;;;;;5012637;28;20256;-59
2022/11/06 08:08:14;;;;;;;6.27;3.63;;;9.50;99.90;;;;;;5009185;28;20227;-59
2022/11/06 08:10:43;;;;;;;7.53;3.80;;;9.50;99.90;;;;;;5009501;28;20255;-59
2022/11/06 08:13:12;;;;;;;7.33;3.90;;;9.50;99.90;;;;;;5011812;28;20271;-59
2022/11/06 08:15:41;;;;;;;6.50;3.90;;;9.50;99.90;;;;;;4997672;28;20221;-59
2022/11/06 08:18:11;;;;;;;7.53;3.87;;;9.50;99.90;;;;;;5001500;28;20244;-59
2022/11/06 08:20:40;;;;;;;9.33;3.80;;;9.50;99.90;;;;;;5008380;28;20222;-59
2022/11/06 08:23:12;;;;;;;5.70;3.70;;;9.60;99.90;;;;;;5007126;28;20237;-59
2022/11/06 08:25:41;;;;;;;5.90;3.87;;;9.60;99.90;;;;;;5011642;28;20240;-59
2022/11/06 08:28:09;;;;;;;6.17;3.67;;;9.60;99.90;;;;;;5013048;28;20304;-60
2022/11/06 08:30:38;;;;;;;4.40;3.30;;;9.70;99.90;;;;;;5011890;28;20238;-59
2022/11/06 08:33:07;;;;;;;8.37;3.33;;;9.70;99.90;;;;;;5012610;28;20226;-59
2022/11/06 08:35:36;;;;;;;5.50;3.27;;;9.70;99.90;;;;;;5012487;28;20245;-59
2022/11/06 08:38:04;;;;;;;5.33;3.10;;;9.70;99.90;;;;;;5012023;28;20283;-59
2022/11/06 08:40:36;;;;;;;5.83;3.20;;;9.70;99.90;;;;;;5005718;28;20230;-59
2022/11/06 08:43:05;;;;;;;5.77;3.77;;;9.80;99.90;;;;;;5009336;28;20236;-59
2022/11/06 08:45:37;;;;;;;4.73;3.20;;;9.80;99.90;;;;;;5001864;28;20321;-60
2022/11/06 08:48:07;;;;;;;10.50;3.63;;;9.80;99.90;;;;;;5005218;28;20678;-59
2022/11/06 08:50:36;;;;;;;5.80;3.07;;;9.90;99.90;;;;;;5011532;28;20241;-59
2022/11/06 08:53:05;;;;;;;7.50;3.17;;;9.90;99.90;;;;;;5015751;28;20234;-59
2022/11/06 08:55:37;;;;;;;8.53;3.30;;;10.00;99.90;;;;;;5015863;28;20234;-59
2022/11/06 08:58:06;;;;;;;8.60;3.20;;;10.10;99.90;;;;;;5015908;28;20231;-60
2022/11/06 09:00:34;;;;;;;4.13;3.00;;;10.20;99.90;;;;;;5015747;28;20246;-59
2022/11/06 09:03:05;;;;;;;10.13;3.60;;;10.20;99.90;;;;;;5015852;28;20225;-60
2022/11/06 09:05:33;;;;;;;5.40;3.10;;;10.30;99.90;;;;;;5016096;28;20229;-59
2022/11/06 09:08:02;;;;;;;6.00;3.43;;;10.40;99.90;;;;;;5008021;28;20230;-59
2022/11/06 09:10:30;;;;;;;5.80;2.97;;;10.60;99.90;;;;;;5020220;28;20232;-59
2022/11/06 09:13:00;;;;;;;5.70;3.00;;;10.60;99.90;;;;;;5020788;28;20701;-59
2022/11/06 09:15:28;;;;;;;3.70;2.33;;;10.70;99.90;;;;;;5020557;28;20293;-59
2022/11/06 09:17:56;;;;;;;6.20;2.80;;;10.80;99.90;;;;;;5025170;28;20225;-59
2022/11/06 09:20:25;;;;;;;5.10;2.80;;;10.90;99.90;;;;;;5024084;28;20237;-59
2022/11/06 09:22:54;;;;;;;6.97;3.47;;;11.00;99.90;;;;;;5024343;28;20237;-59
2022/11/06 09:25:22;;;;;;;6.27;2.80;;;11.00;99.90;;;;;;5019855;28;20258;-59
2022/11/06 09:27:51;;;;;;;6.27;2.90;;;11.00;99.90;;;;;;5021754;28;20558;-58
2022/11/06 09:30:29;;;;;;;4.33;2.97;;;11.00;99.90;;;;;;5015930;28;20234;-59
2022/11/06 09:32:58;;;;;;;7.20;2.83;;;11.30;99.90;;;;;;5022952;28;20225;-59
2022/11/06 09:35:28;;;;;;;4.77;2.50;;;11.50;99.90;;;;;;5012611;28;20225;-60
2022/11/06 09:38:02;;;;;;;4.43;2.60;;;11.80;99.90;;;;;;5019277;28;20217;-60
2022/11/06 09:40:33;;;;;;;6.87;2.60;;;12.10;99.90;;;;;;5021599;28;20239;-60
2022/11/06 09:43:19;;;;;;;4.90;2.30;;;12.50;99.90;;;;;;5024520;28;20248;-59
2022/11/06 09:46:20;;;;;;;5.40;2.10;;;12.80;99.90;;;;;;5010212;28;20756;-60
2022/11/06 09:48:53;;;;;;;3.80;2.30;;;13.10;99.90;;;;;;5009030;28;20220;-60
2022/11/06 09:51:36;;;;;;;4.13;2.17;;;13.30;99.90;;;;;;5010599;28;20761;-60
2022/11/06 09:54:12;;;;;;;4.67;2.43;;;13.70;99.90;;;;;;5009934;28;20297;-60
2022/11/06 09:56:41;;;;;;;5.40;2.03;;;13.80;99.90;;;;;;5009679;28;20232;-60
2022/11/06 09:59:13;;;;;;;4.17;2.27;;;13.60;99.90;;;;;;5009522;28;20240;-60
2022/11/06 10:01:47;;;;;;;4.60;2.07;;;13.40;99.90;;;;;;5009062;28;20236;-60
2022/11/06 10:04:25;;;;;;;4.00;2.27;;;13.10;99.90;;;;;;5009553;28;20228;-60
2022/11/06 10:06:53;;;;;;;3.50;2.17;;;12.90;99.90;;;;;;5008213;28;20242;-60
2022/11/06 10:09:21;;;;;;;4.37;2.30;;;12.80;99.90;;;;;;5009040;28;20850;-60
2022/11/06 10:11:56;;;;;;;5.50;2.40;;;12.80;99.90;;;;;;5010122;28;20239;-58
2022/11/06 10:14:37;;;;;;;3.73;2.30;;;12.80;99.90;;;;;;5009307;28;20556;-60
2022/11/06 10:17:15;;;;;;;4.60;2.40;;;12.70;99.90;;;;;;5009987;28;20626;-60
2022/11/06 10:19:49;;;;;;;6.53;2.17;;;12.70;99.90;;;;;;5009459;28;20262;-60
2022/11/06 10:22:23;;;;;;;4.57;2.03;;;12.60;99.90;;;;;;5008246;28;20229;-60
2022/11/06 10:25:00;;;;;;;3.23;2.03;;;12.60;99.90;;;;;;5005691;28;20241;-60
2022/11/06 10:27:36;;;;;;;3.93;2.07;;;12.60;99.90;;;;;;5008815;28;21712;-60
2022/11/06 10:30:10;;;;;;;4.47;2.17;;;12.60;99.90;;;;;;5009059;28;20243;-59
2022/11/06 10:32:59;;;;;;;2.97;2.10;;;12.70;99.90;;;;;;5008175;28;20761;-59
2022/11/06 10:35:34;;;;;;;6.37;2.13;;;12.70;99.90;;;;;;5008388;28;20224;-60
2022/11/06 10:38:10;;;;;;;3.73;2.37;;;12.80;99.90;;;;;;5008976;28;20231;-59
2022/11/06 10:40:39;;;;;;;3.37;2.23;;;12.90;99.90;;;;;;5008761;28;20710;-60
2022/11/06 10:43:21;;;;;;;5.00;2.20;;;13.00;99.90;;;;;;5009036;28;20246;-60
2022/11/06 10:45:56;;;;;;;7.23;3.50;;;13.00;99.90;;;;;;5021916;28;20419;-60
2022/11/06 10:48:29;;;;;;;5.60;2.90;;;13.00;99.90;;;;;;5014149;28;20232;-60
2022/11/06 10:51:17;;;;;;;8.37;3.60;;;13.20;99.90;;;;;;5016099;28;20252;-59
2022/11/06 10:53:57;;;;;;;4.87;3.10;;;13.30;99.90;;;;;;5019545;28;20278;-60
2022/11/06 10:56:39;;;;;;;5.37;2.97;;;13.70;99.90;;;;;;5023689;28;20579;-60
2022/11/06 10:59:08;;;;;;;5.03;2.93;;;13.50;99.90;;;;;;5022850;28;20373;-60
2022/11/06 11:01:37;;;;;;;7.73;2.37;;;13.40;99.90;;;;;;5021222;28;20238;-59
2022/11/06 11:04:06;;;;;;;6.83;2.30;;;13.40;99.90;;;;;;5013907;28;20228;-60
2022/11/06 11:06:34;;;;;;;4.47;1.83;;;13.30;99.90;;;;;;5021542;28;20254;-60
2022/11/06 11:09:22;;;;;;;7.83;2.47;;;13.40;99.90;;;;;;5015422;28;20224;-60
2022/11/06 11:11:50;;;;;;;3.93;2.30;;;13.80;99.90;;;;;;5024939;28;20232;-60
2022/11/06 11:14:23;;;;;;;6.17;2.30;;;14.20;99.90;;;;;;5017297;28;20290;-60
2022/11/06 11:16:52;;;;;;;3.40;1.77;;;14.60;99.90;;;;;;5020911;28;20232;-59
2022/11/06 11:19:32;;;;;;;2.90;2.30;;;14.70;99.90;;;;;;5022479;28;20227;-60
2022/11/06 11:22:02;;;;;;;4.77;2.13;;;14.50;99.90;;;;;;5019916;28;20220;-60
2022/11/06 11:24:31;;;;;;;6.03;2.13;;;14.50;99.90;;;;;;5014290;28;20277;-60
2022/11/06 11:27:00;;;;;;;4.33;1.93;;;14.40;99.90;;;;;;5021658;28;20228;-60
2022/11/06 11:29:31;;;;;;;3.67;1.83;;;14.30;99.90;;;;;;5015880;28;20262;-60
2022/11/06 11:32:02;;;;;;;3.47;1.90;;;14.20;99.90;;;;;;5023045;28;20227;-60
2022/11/06 11:34:35;;;;;;;3.70;1.80;;;14.30;99.90;;;;;;5017854;28;20270;-60
2022/11/06 11:37:06;;;;;;;5.47;2.07;;;14.20;99.90;;;;;;5019985;28;20228;-60
2022/11/06 11:39:37;;;;;;;3.83;2.07;;;14.10;99.90;;;;;;5017507;28;20228;-59
2022/11/06 11:42:25;;;;;;;3.40;2.10;;;13.90;99.90;;;;;;5019874;28;20236;-60
2022/11/06 11:45:15;;;;;;;4.23;1.90;;;13.90;99.90;;;;;;5012642;28;20606;-60
2022/11/06 11:47:46;;;;;;;2.83;1.87;;;13.90;99.90;;;;;;5020582;28;20228;-60
2022/11/06 11:50:28;;;;;;;5.37;2.60;;;13.90;99.90;;;;;;5018850;28;20239;-60
2022/11/06 11:53:00;;;;;;;5.47;2.47;;;13.70;99.90;;;;;;5024152;28;20224;-60
2022/11/06 11:55:40;;;;;;;4.07;2.23;;;13.60;99.90;;;;;;5017704;28;20238;-59
2022/11/06 11:58:19;;;;;;;6.37;2.57;;;13.60;99.90;;;;;;5018753;28;20285;-60
2022/11/06 12:00:56;;;;;;;4.70;2.37;;;13.60;99.90;;;;;;5018472;28;20235;-59
2022/11/06 12:03:27;;;;;;;4.60;1.90;;;13.50;99.90;;;;;;5020008;28;21343;-60
2022/11/06 12:06:07;;;;;;;3.73;2.17;;;13.40;99.90;;;;;;5020179;28;20232;-60
2022/11/06 12:08:38;;;;;;;4.43;2.13;;;13.40;99.90;;;;;;5021912;28;20227;-60
2022/11/06 12:11:07;;;;;;;3.43;2.00;;;13.40;99.90;;;;;;5011778;28;20225;-60
2022/11/06 12:13:35;;;;;;;3.73;2.20;;;13.40;99.90;;;;;;5004609;28;20277;-60
2022/11/06 12:16:08;;;;;;;6.13;2.13;;;13.30;99.90;;;;;;5004433;28;20229;-60
2022/11/06 12:18:40;;;;;;;3.40;2.00;;;13.30;99.90;;;;;;5036010;28;20236;-60
2022/11/06 12:21:15;;;;;;;4.23;2.10;;;13.30;99.90;;;;;;5007371;28;20257;-60
2022/11/06 12:23:47;;;;;;;5.83;2.37;;;13.10;99.90;;;;;;5010707;28;20232;-60
2022/11/06 12:26:25;;;;;;;4.00;2.40;;;13.10;99.90;;;;;;5008297;28;20237;-60
2022/11/06 12:28:58;;;;;;;4.73;2.50;;;12.90;99.90;;;;;;5009822;28;20247;-60
2022/11/06 12:31:37;;;;;;;3.73;2.40;;;12.90;99.90;;;;;;5006361;28;20235;-60
2022/11/06 12:34:12;;;;;;;4.60;2.40;;;12.90;99.90;;;;;;5010050;28;20221;-60
2022/11/06 12:37:04;;;;;;;6.13;2.30;;;13.00;99.90;;;;;;5010221;28;20726;-60
2022/11/06 12:39:37;;;;;;;4.27;2.40;;;13.10;99.90;;;;;;5007421;28;20225;-60
2022/11/06 12:42:07;;;;;;;4.13;2.00;;;13.20;99.90;;;;;;5013344;28;20229;-60
2022/11/06 12:44:35;;;;;;;3.00;1.90;;;13.20;99.90;;;;;;5014096;28;20286;-60
2022/11/06 12:47:13;;;;;;;5.77;2.10;;;13.20;99.90;;;;;;5019956;28;20226;-60
2022/11/06 12:50:17;;;;;;;3.97;2.20;;;13.20;99.90;;;;;;5018930;28;20231;-60
2022/11/06 12:53:07;;;;;;;4.20;1.73;;;13.30;99.90;;;;;;5018852;28;20227;-60
2022/11/06 12:55:40;;;;;;;3.90;1.87;;;13.40;99.90;;;;;;5021017;28;20233;-60
2022/11/06 12:58:34;;;;;;;2.43;1.77;;;13.60;99.90;;;;;;5025242;28;20224;-59
2022/11/06 13:01:09;;;;;;;3.20;1.80;;;13.60;99.90;;;;;;5012899;28;20232;-60
2022/11/06 13:04:13;;;;;;;3.83;1.97;;;13.70;99.90;;;;;;5015654;28;20241;-58
2022/11/06 13:07:15;;;;;;;3.03;1.70;;;13.80;99.90;;;;;;5009358;28;21685;-60
2022/11/06 13:09:51;;;;;;;5.43;1.80;;;14.00;99.90;;;;;;5002694;28;20236;-59
2022/11/06 13:12:24;;;;;;;4.07;2.27;;;14.10;99.90;;;;;;5024075;28;20703;-60
2022/11/06 13:15:09;;;;;;;2.53;2.20;;;14.10;99.90;;;;;;5016338;28;20232;-60
2022/11/06 13:17:42;;;;;;;4.70;1.90;;;14.20;99.90;;;;;;5014675;28;20561;-60
2022/11/06 13:20:16;;;;;;;3.67;1.97;;;14.20;99.90;;;;;;5017981;28;20231;-58
2022/11/06 13:22:51;;;;;;;3.13;1.87;;;14.20;99.90;;;;;;5017261;28;20569;-59
2022/11/06 13:25:26;;;;;;;2.60;1.57;;;14.10;99.90;;;;;;5023454;28;20232;-60
2022/11/06 13:27:59;;;;;;;4.43;2.00;;;14.20;99.90;;;;;;5015841;28;20695;-60
2022/11/06 13:30:28;;;;;;;4.60;2.13;;;14.10;99.90;;;;;;5024072;28;20236;-60
2022/11/06 13:33:18;;;;;;;3.50;1.93;;;14.00;99.90;;;;;;5026925;28;20231;-58